Latest Weather Observations for Yulara

IDD60801

Issued at 9:31 pm CST Friday 27 May 2016 (issued every 30 minutes, with the page automatically refreshed every 10 minutes)

About weather observations | Map of weather stations | Latest weather observations for NT | Other Formats
Station Details ID: 015635 Name: YULARA AIRPORT Lat: -25.19 Lon: 130.97 Height: 492.0 m
Data from the previous 72 hours. | See also: Recent months at Yulara
Date/Time
CST
Temp
°C
App
Temp
°C
Dew
Point
Rel
Hum
%
Delta-T
°C
Wind Press
QNH
hPa
Press
MSL
hPa
Rain
since 9 am
mm
Dir
 
Spd
km/h
Gust
km/h
Spd
kts
Gust
kts
27/09:30pm 13.1 10.2 4.8 57 3.9 SSE 9 13 5 7 1021.7 1020.5 0.0
27/09:00pm 14.0 10.8 4.9 54 4.3 SSE 11 15 6 8 1021.5 1020.3 0.0
27/08:30pm 14.1 10.5 4.9 54 4.4 SSE 13 15 7 8 1021.4 1020.2 0.0
27/08:00pm 14.2 11.4 5.0 54 4.4 SSE 9 11 5 6 1021.1 1019.9 0.0
27/07:30pm 15.1 12.6 5.0 51 4.9 SSE 7 9 4 5 1020.9 1019.7 0.0
27/07:00pm 15.8 13.0 5.1 49 5.2 SSE 9 15 5 8 1020.7 1019.5 0.0
27/06:30pm 16.2 13.3 4.9 47 5.5 SSE 9 13 5 7 1020.5 1019.3 0.0
27/06:00pm 17.1 13.4 4.4 43 6.1 SSE 13 20 7 11 1020.3 1019.1 0.0
27/05:30pm 17.9 13.3 3.8 39 6.8 SSE 17 26 9 14 1020.0 1018.8 0.0
27/05:00pm 18.1 13.1 3.6 38 7.0 SSE 19 24 10 13 1020.0 1018.8 0.0
27/04:30pm 18.3 13.4 4.1 39 6.9 SSE 19 26 10 14 1020.0 1018.8 0.0
27/04:00pm 19.3 14.5 4.6 38 7.3 SSE 19 26 10 14 1020.0 1018.8 0.0
27/03:30pm 19.5 15.0 4.0 36 7.6 S 17 24 9 13 1019.9 1018.7 0.0
27/03:00pm 19.6 15.7 3.3 34 7.8 SE 13 20 7 11 1020.1 1018.9 0.0
27/02:30pm 19.8 15.2 3.5 34 7.9 SSE 17 20 9 11 1020.1 1018.9 0.0
27/02:00pm 19.5 15.2 3.2 34 7.8 SE 15 24 8 13 1020.2 1019.0 0.0
27/01:30pm 19.6 14.9 2.9 33 8.0 SSE 17 24 9 13 1020.7 1019.5 0.0
27/01:00pm 19.5 14.8 3.2 34 7.8 SE 17 24 9 13 1021.3 1020.1 0.0
27/12:30pm 20.2 15.7 4.3 35 7.8 SE 17 26 9 14 1022.3 1021.1 0.0
27/12:00pm 19.1 14.5 3.7 36 7.4 SSE 17 26 9 14 1022.3 1021.1 0.0
27/11:30am 17.9 13.3 3.8 39 6.8 SSE 17 26 9 14 1023.0 1021.9 0.0
27/11:00am 17.2 12.9 3.5 40 6.5 SE 15 24 8 13 1023.4 1022.2 0.0
27/10:30am 17.3 14.8 3.9 41 6.4 SE 6 26 3 14 1022.8 1021.7 0.0
27/10:00am 16.8 13.1 4.2 43 6.1 SE 13 24 7 13 1023.5 1022.3 0.0
27/09:30am 16.0 11.0 3.8 44 5.8 SE 19 24 10 13 1023.1 1022.0 0.0
27/09:00am 14.8 11.4 3.9 48 5.1 ESE 11 15 6 8 1022.5 1021.3 0.0
27/08:30am 14.0 10.6 3.8 50 4.7 SE 11 17 6 9 1022.4 1021.2 0.0
27/08:00am 12.3 10.8 5.0 61 3.5 SSE 2 7 1 4 1022.5 1021.3 0.0
27/07:30am 11.3 8.8 3.8 60 3.4 ESE 6 7 3 4 1021.7 1020.5 0.0
27/07:00am 11.6 9.1 3.6 58 3.6 SSE 6 9 3 5 1021.6 1020.4 0.0
27/06:30am 11.0 9.7 4.2 63 3.1 CALM 0 0 0 0 1021.4 1020.2 0.0
27/06:00am 11.2 8.5 3.7 60 3.4 SSE 7 9 4 5 1021.1 1019.9 0.0
27/05:30am 12.1 9.3 3.3 55 4.0 SE 7 11 4 6 1020.5 1019.3 0.0
27/05:00am 13.3 10.5 3.1 50 4.7 ESE 7 9 4 5 1020.2 1019.0 0.0
27/04:30am 13.7 10.4 4.3 53 4.4 SSE 11 15 6 8 1020.0 1018.8 0.0
27/04:00am 15.0 12.6 6.8 58 4.1 SE 9 15 5 8 1019.8 1018.6 0.0
27/03:30am 15.0 11.7 6.3 56 4.3 S 13 19 7 10 1019.5 1018.3 0.0
27/03:00am 15.4 11.0 6.4 55 4.5 S 19 24 10 13 1019.3 1018.1 0.0
27/02:30am 15.9 11.9 8.4 61 3.9 S 19 26 10 14 1019.1 1017.8 0.0
27/02:00am 16.2 12.8 9.2 63 3.7 S 17 22 9 12 1019.0 1017.7 0.0
27/01:30am 16.7 13.4 9.4 62 3.9 S 17 26 9 14 1018.7 1017.5 0.0
27/01:00am 17.2 14.8 9.9 62 3.9 S 13 24 7 13 1018.5 1017.3 0.0
27/12:30am 18.1 14.7 10.5 61 4.2 SSW 19 26 10 14 1018.2 1017.0 0.0
27/12:00am 19.0 16.2 11.3 61 4.3 SSW 17 26 9 14 1017.8 1016.6 0.0
 
Date/Time
CST
Temp
°C
App
Temp
°C
Dew
Point
Rel
Hum
%
Delta-T
°C
Wind Press
QNH
hPa
Press
MSL
hPa
Rain
since 9 am
mm
Dir
 
Spd
km/h
Gust
km/h
Spd
kts
Gust
kts
26/11:30pm 19.5 17.4 12.5 64 4.0 S 15 26 8 14 1017.5 1016.3 0.0
26/11:00pm 19.9 19.0 12.7 63 4.2 SSW 9 24 5 13 1017.4 1016.1 0.0
26/10:30pm 20.3 19.3 13.3 64 4.1 S 11 26 6 14 1017.4 1016.1 0.0
26/10:00pm 21.0 20.9 13.4 62 4.5 SSW 6 26 3 14 1017.0 1015.7 0.0
26/09:30pm 22.1 19.3 12.6 55 5.5 SSW 19 24 10 13 1016.5 1015.3 0.0
26/09:00pm 23.0 20.6 12.6 52 6.1 SW 17 20 9 11 1016.1 1014.9 0.0
26/08:30pm 23.5 21.4 12.5 50 6.4 SW 15 20 8 11 1016.0 1014.8 0.0
26/08:00pm 24.3 22.6 12.3 47 7.0 SW 13 17 7 9 1015.8 1014.6 0.0
26/07:30pm 25.4 23.1 11.9 43 7.9 SW 15 20 8 11 1015.4 1014.1 0.0
26/07:00pm 25.7 23.8 11.8 42 8.1 SW 13 17 7 9 1014.8 1013.5 0.0
26/06:30pm 27.2 24.9 11.7 38 9.1 W 15 20 8 11 1014.1 1012.9 0.0
26/06:00pm 28.1 25.0 11.6 36 9.7 W 19 24 10 13 1013.7 1012.4 0.0
26/05:30pm 29.2 25.9 11.7 34 10.3 W 20 28 11 15 1013.6 1012.3 0.0
26/05:00pm 29.5 26.2 11.5 33 10.6 W 20 28 11 15 1013.3 1012.0 0.0
26/04:30pm 30.0 27.2 11.5 32 10.9 W 17 28 9 15 1013.2 1011.9 0.0
26/04:00pm 29.8 27.4 11.3 32 10.9 W 15 28 8 15 1013.2 1011.9 0.0
26/03:30pm 29.8 26.6 11.8 33 10.7 W 20 28 11 15 1013.2 1011.9 0.0
26/03:00pm 30.4 27.2 11.9 32 11.0 W 20 30 11 16 1013.1 1011.8 0.0
26/02:30pm 30.0 26.8 12.0 33 10.7 W 20 30 11 16 1013.1 1011.8 0.0
26/02:00pm 30.0 27.0 12.0 33 10.7 W 19 30 10 16 1013.5 1012.2 0.0
26/01:30pm 29.2 26.3 12.2 35 10.1 WNW 19 28 10 15 1014.0 1012.8 0.0
26/01:00pm 28.7 27.1 11.7 35 10.0 W 11 28 6 15 1014.4 1013.2 0.0
26/12:30pm 28.3 25.4 12.2 37 9.6 WNW 19 28 10 15 1014.5 1013.3 0.0
26/12:00pm 28.1 25.1 12.5 38 9.3 WNW 20 28 11 15 1015.0 1013.7 0.0
26/11:30am 26.6 24.3 11.9 40 8.6 WNW 15 22 8 12 1015.3 1014.0 0.0
26/11:00am 25.8 23.3 12.3 43 7.9 W 17 24 9 13 1015.5 1014.2 0.0
26/10:30am 24.3 21.7 11.9 45 7.2 W 17 24 9 13 1015.5 1014.2 0.0
26/10:00am 23.5 22.1 12.2 49 6.6 WNW 11 15 6 8 1015.8 1014.6 0.0
26/09:30am 21.9 20.6 12.5 55 5.4 W 11 15 6 8 1015.7 1014.5 0.0
26/09:00am 19.5 18.7 13.0 66 3.8 SSW 9 11 5 6 1015.7 1014.5 0.0
26/08:30am 17.1 16.8 13.2 78 2.2 SSW 7 15 4 8 1015.3 1014.0 0.0
26/08:00am 15.5 16.0 12.8 84 1.5 N 2 6 1 3 1014.9 1013.6 0.0
26/07:30am 14.4 15.0 13.0 91 0.8 N 2 9 1 5 1014.3 1013.1 0.0
26/07:00am 13.8 14.6 12.4 91 0.8 CALM 0 0 0 0 1014.2 1013.0 0.0
26/06:30am 14.1 14.9 12.5 90 0.9 CALM 0 6 0 3 1014.1 1012.9 0.0
26/06:00am 14.2 15.0 12.6 90 0.9 CALM 0 0 0 0 1014.0 1012.8 0.0
26/05:30am 14.4 15.2 12.4 88 1.1 CALM 0 0 0 0 1013.9 1012.7 0.0
26/05:00am 15.3 14.8 12.8 85 1.4 NNE 7 9 4 5 1013.7 1012.4 0.0
26/04:30am 15.6 16.4 12.7 83 1.6 CALM 0 4 0 2 1013.6 1012.3 0.0
26/04:00am 16.0 16.8 12.7 81 1.9 CALM 0 0 0 0 1013.6 1012.3 0.0
26/03:30am 16.5 16.0 12.7 78 2.2 N 7 11 4 6 1013.9 1012.7 0.0
26/03:00am 16.8 16.4 12.5 76 2.4 NNW 6 9 3 5 1014.0 1012.8 0.0
26/02:30am 17.1 16.7 13.0 77 2.3 WNW 7 9 4 5 1014.3 1013.1 0.0
26/02:00am 16.6 17.5 12.9 79 2.1 CALM 0 7 0 4 1014.5 1013.3 0.0
26/01:30am 17.2 17.0 13.1 77 2.4 NW 6 7 3 4 1014.8 1013.5 0.0
26/01:00am 17.4 17.0 13.1 76 2.5 NW 7 9 4 5 1014.8 1013.5 0.0
26/12:30am 17.3 17.0 12.6 74 2.7 WNW 6 7 3 4 1014.9 1013.6 0.0
26/12:00am 18.8 18.5 12.8 68 3.4 NW 6 7 3 4 1014.9 1013.6 0.0
 
Date/Time
CST
Temp
°C
App
Temp
°C
Dew
Point
Rel
Hum
%
Delta-T
°C
Wind Press
QNH
hPa
Press
MSL
hPa
Rain
since 9 am
mm
Dir
 
Spd
km/h
Gust
km/h
Spd
kts
Gust
kts
25/11:30pm 18.3 19.1 12.5 69 3.3 CALM 0 0 0 0 1015.1 1013.8 0.0
25/11:00pm 19.1 20.0 12.8 67 3.6 CALM 0 0 0 0 1015.1 1013.8 0.0
25/10:30pm 20.1 20.3 13.1 64 4.1 NNW 4 7 2 4 1015.0 1013.7 0.0
25/10:00pm 20.9 21.9 13.1 61 4.6 CALM 0 0 0 0 1015.0 1013.7 0.0
25/09:30pm 20.1 19.8 12.6 62 4.3 WNW 6 7 3 4 1015.0 1013.7 0.0
25/09:00pm 21.0 20.6 12.4 58 5.0 WNW 6 7 3 4 1015.0 1013.7 0.0
25/08:30pm 20.9 21.2 12.1 57 5.0 W 2 6 1 3 1014.7 1013.4 0.0
25/08:00pm 21.5 22.2 12.1 55 5.4 CALM 0 0 0 0 1014.1 1012.9 0.0
25/07:30pm 23.4 22.9 12.1 49 6.6 NNW 6 9 3 5 1013.7 1012.4 0.0
25/07:00pm 24.5 23.0 11.8 45 7.4 NNW 11 13 6 7 1013.3 1012.0 0.0
25/06:30pm 26.0 23.3 11.7 41 8.3 NW 17 26 9 14 1013.1 1011.8 0.0
25/06:00pm 26.9 23.5 11.4 38 9.0 NW 20 28 11 15 1012.8 1011.5 0.0
25/05:30pm 27.9 25.1 11.5 36 9.6 NW 17 28 9 15 1012.7 1011.4 0.0
25/05:00pm 28.6 26.5 11.2 34 10.2 NW 13 28 7 15 1012.6 1011.3 0.0
25/04:30pm 29.1 27.1 11.6 33 10.3 NW 13 28 7 15 1012.3 1011.1 0.0
25/04:00pm 29.0 27.4 11.6 34 10.3 NW 11 28 6 15 1012.6 1011.3 0.0
25/03:30pm 28.9 26.9 11.5 34 10.2 NW 13 28 7 15 1012.5 1011.2 0.0
25/03:00pm 29.0 27.9 12.0 35 10.1 NW 9 28 5 15 1012.8 1011.5 0.0
25/02:30pm 28.2 27.3 11.3 35 9.9 NW 7 28 4 15 1013.0 1011.7 0.0
25/02:00pm 29.2 27.9 11.3 33 10.5 NW 9 28 5 15 1013.3 1012.0 0.0
25/01:30pm 28.7 28.0 11.3 34 10.2 NW 6 28 3 15 1013.7 1012.4 0.0
25/01:00pm 28.4 28.0 11.0 34 10.1 NW 4 26 2 14 1014.2 1013.0 0.0
25/12:30pm 27.5 26.0 10.7 35 9.7 NW 9 28 5 15 1015.1 1013.8 0.0
25/12:00pm 26.9 24.3 10.6 36 9.4 NW 15 28 8 15 1015.5 1014.2 0.0
25/11:30am 25.9 22.6 10.9 39 8.6 NW 19 28 10 15 1016.0 1014.8 0.0
25/11:00am 25.4 22.4 10.8 40 8.4 NW 17 28 9 15 1016.1 1014.9 0.0
25/10:30am 24.0 21.3 11.7 46 7.1 NW 17 26 9 14 1016.3 1015.1 0.0
25/10:00am 22.3 20.5 10.8 48 6.5 NW 11 19 6 10 1016.5 1015.3 0.0
25/09:30am 20.2 20.3 10.3 53 5.5 CALM 0 0 0 0 1016.5 1015.3 0.0
25/09:00am 17.8 18.2 11.1 65 3.7 CALM 0 0 0 0 1016.4 1015.2 0.0
25/08:30am 15.6 14.7 10.8 73 2.6 S 6 7 3 4 1016.4 1015.2 0.0
25/08:00am 13.3 12.2 9.9 80 1.8 S 6 6 3 3 1016.0 1014.8 0.0
25/07:30am 12.3 10.9 9.7 84 1.4 S 7 9 4 5 1015.8 1014.6 0.0
25/07:00am 12.2 11.0 9.6 84 1.4 S 6 7 3 4 1015.6 1014.3 0.0
25/06:30am 12.4 10.6 9.6 83 1.5 SSW 9 11 5 6 1015.5 1014.2 0.0
25/06:00am 12.6 12.7 10.0 84 1.4 CALM 0 0 0 0 1015.3 1014.0 0.0
25/05:30am 12.8 12.8 9.8 82 1.6 CALM 0 0 0 0 1015.2 1013.9 0.0
25/05:00am 12.9 13.0 10.1 83 1.5 CALM 0 0 0 0 1015.0 1013.7 0.0
25/04:30am 13.2 13.3 10.0 81 1.7 CALM 0 0 0 0 1014.9 1013.6 0.0
25/04:00am 13.4 13.4 9.8 79 1.9 CALM 0 0 0 0 1015.4 1014.1 0.0
25/03:30am 13.7 13.8 10.1 79 1.9 CALM 0 0 0 0 1015.7 1014.5 0.0
25/03:00am 14.8 14.9 10.0 73 2.6 CALM 0 0 0 0 1015.9 1014.7 0.0
25/02:30am 14.5 14.6 10.3 76 2.2 CALM 0 0 0 0 1016.0 1014.8 0.0
25/02:00am 15.2 15.3 10.0 71 2.8 CALM 0 0 0 0 1016.1 1014.9 0.0
25/01:30am 15.1 15.1 9.9 71 2.8 CALM 0 0 0 0 1016.4 1015.2 0.0
25/01:00am 16.2 16.3 10.1 67 3.3 CALM 0 0 0 0 1016.4 1015.2 0.0
25/12:30am 17.2 17.2 9.9 62 3.9 CALM 0 0 0 0 1016.5 1015.3 0.0
25/12:00am 16.9 15.1 9.6 62 3.9 SSW 9 11 5 6 1016.9 1015.6 0.0
 
Date/Time
CST
Temp
°C
App
Temp
°C
Dew
Point
Rel
Hum
%
Delta-T
°C
Wind Press
QNH
hPa
Press
MSL
hPa
Rain
since 9 am
mm
Dir
 
Spd
km/h
Gust
km/h
Spd
kts
Gust
kts
24/11:30pm 17.3 16.1 9.5 60 4.2 S 6 7 3 4 1017.1 1015.8 0.0
24/11:00pm 17.0 15.9 9.9 63 3.8 SSW 6 9 3 5 1017.5 1016.3 0.0
24/10:30pm 17.2 15.9 9.1 59 4.3 SSE 6 7 3 4 1017.6 1016.4 0.0
24/10:00pm 17.2 17.0 9.1 59 4.3 CALM 0 7 0 4 1017.5 1016.3 0.0

Other Formats:

Comma delimited format used in spreadsheet applications
http://www.bom.gov.au/fwo/IDD60801/IDD60801.94462.axf

JavaScript Object Notation format (JSON) in row-major order
http://www.bom.gov.au/fwo/IDD60801/IDD60801.94462.json